createdAt,value
2022-10-02T00:03:21.531Z,92
2022-10-02T00:06:46.947Z,92
2022-10-02T00:10:12.349Z,92
2022-10-02T00:13:37.794Z,92
2022-10-02T00:17:03.178Z,92
2022-10-02T00:20:28.560Z,92
2022-10-02T00:23:53.980Z,92
2022-10-02T00:27:19.372Z,92
2022-10-02T00:30:44.820Z,92
2022-10-02T00:34:14.464Z,92
2022-10-02T00:37:35.589Z,91
2022-10-02T00:41:00.967Z,91
2022-10-02T00:44:26.395Z,91
2022-10-02T00:47:51.827Z,91
2022-10-02T00:51:17.200Z,92
2022-10-02T00:54:42.614Z,91
2022-10-02T00:58:08.049Z,92
2022-10-02T01:01:33.421Z,93
2022-10-02T01:04:58.856Z,92
2022-10-02T01:08:24.208Z,92
2022-10-02T01:11:50.499Z,92
2022-10-02T01:15:15.919Z,92
2022-10-02T01:18:41.332Z,92
2022-10-02T01:22:06.773Z,91
2022-10-02T01:25:32.150Z,91
2022-10-02T01:28:57.543Z,91
2022-10-02T01:32:22.939Z,91
2022-10-02T01:35:48.408Z,91
2022-10-02T01:39:13.838Z,91
2022-10-02T01:42:39.260Z,91
2022-10-02T01:46:04.726Z,91
2022-10-02T01:49:30.056Z,91
2022-10-02T01:52:55.422Z,91
2022-10-02T01:56:20.891Z,92
2022-10-02T01:59:46.257Z,92
2022-10-02T02:03:11.664Z,91
2022-10-02T02:06:37.297Z,91
2022-10-02T02:10:02.461Z,91
2022-10-02T02:13:27.888Z,91
2022-10-02T02:16:53.308Z,91
2022-10-02T02:20:18.831Z,91
2022-10-02T02:23:44.222Z,91
2022-10-02T02:27:09.652Z,92
2022-10-02T02:30:35.045Z,92
2022-10-02T02:34:00.455Z,92
2022-10-02T02:37:25.889Z,92
2022-10-02T02:40:51.286Z,92
2022-10-02T02:44:16.698Z,91
2022-10-02T02:47:42.119Z,91
2022-10-02T02:51:07.471Z,91
2022-10-02T02:54:32.838Z,91
2022-10-02T02:57:58.284Z,91
2022-10-02T03:01:23.773Z,91
2022-10-02T03:04:49.138Z,91
2022-10-02T03:08:14.514Z,92
2022-10-02T03:11:39.956Z,92
2022-10-02T03:15:05.354Z,93
2022-10-02T03:18:30.709Z,93
2022-10-02T03:21:56.108Z,93
2022-10-02T03:25:21.496Z,93
2022-10-02T03:28:57.014Z,93
2022-10-02T03:32:12.327Z,93
2022-10-02T03:35:37.718Z,93
2022-10-02T03:39:30.373Z,93
2022-10-02T03:42:28.556Z,93
2022-10-02T03:45:53.980Z,93
2022-10-02T03:49:19.399Z,94
2022-10-02T03:52:44.811Z,93
2022-10-02T03:56:10.245Z,93
2022-10-02T03:59:35.639Z,94
2022-10-02T04:03:01.022Z,94
2022-10-02T04:06:26.486Z,94
2022-10-02T04:09:51.873Z,95
2022-10-02T04:13:17.253Z,95
2022-10-02T04:16:42.762Z,95
2022-10-02T04:20:08.079Z,95
2022-10-02T04:23:33.483Z,95
2022-10-02T04:26:58.915Z,95
2022-10-02T04:30:24.338Z,95
2022-10-02T04:33:49.712Z,96
2022-10-02T04:37:15.136Z,96
2022-10-02T04:40:40.562Z,96
2022-10-02T04:44:05.905Z,96
2022-10-02T04:47:31.324Z,96
2022-10-02T04:50:56.703Z,96
2022-10-02T04:54:22.115Z,96
2022-10-02T04:57:47.511Z,96
2022-10-02T05:01:13.051Z,96
2022-10-02T05:04:38.341Z,96
2022-10-02T05:08:03.727Z,96
2022-10-02T05:11:29.162Z,96
2022-10-02T05:14:54.558Z,96
2022-10-02T05:18:19.932Z,96
2022-10-02T05:21:45.336Z,96
2022-10-02T05:25:10.766Z,96
2022-10-02T05:28:36.153Z,96
2022-10-02T05:32:01.571Z,96
2022-10-02T05:35:26.965Z,96
2022-10-02T05:38:52.392Z,96
2022-10-02T05:42:17.777Z,96
2022-10-02T05:45:43.437Z,96
2022-10-02T05:49:08.780Z,96
2022-10-02T05:52:34.146Z,96
2022-10-02T05:55:59.533Z,96
2022-10-02T05:59:24.931Z,96
2022-10-02T06:02:50.293Z,96
2022-10-02T06:06:15.724Z,96
2022-10-02T06:09:41.084Z,97
2022-10-02T06:13:06.473Z,96
2022-10-02T06:16:31.892Z,96
2022-10-02T06:20:01.070Z,96
2022-10-02T06:23:22.618Z,96
2022-10-02T06:26:48.021Z,96
2022-10-02T06:30:13.418Z,96
2022-10-02T06:33:38.742Z,96
2022-10-02T06:37:04.084Z,96
2022-10-02T06:40:29.454Z,96
2022-10-02T06:43:54.800Z,96
2022-10-02T06:47:20.172Z,96
2022-10-02T06:50:45.521Z,96
2022-10-02T06:54:10.836Z,96
2022-10-02T06:57:36.212Z,96
2022-10-02T07:01:01.739Z,96
2022-10-02T07:04:27.085Z,96
2022-10-02T07:07:52.435Z,96
2022-10-02T07:11:17.791Z,96
2022-10-02T07:14:43.157Z,96
2022-10-02T07:18:09.201Z,96
2022-10-02T07:21:34.673Z,96
2022-10-02T07:24:59.992Z,96
2022-10-02T07:28:25.432Z,96
2022-10-02T07:31:50.809Z,96
2022-10-02T07:35:16.167Z,97
2022-10-02T07:38:41.579Z,97
2022-10-02T07:42:06.916Z,97
2022-10-02T07:45:32.316Z,97
2022-10-02T07:48:57.672Z,96
2022-10-02T07:52:23.046Z,96
2022-10-02T07:55:48.470Z,96
2022-10-02T07:59:13.782Z,97
2022-10-02T08:02:39.177Z,96
2022-10-02T08:06:04.539Z,96
2022-10-02T08:09:29.907Z,96
2022-10-02T08:12:55.318Z,96
2022-10-02T08:16:20.708Z,95
2022-10-02T08:19:46.032Z,95
2022-10-02T08:23:11.402Z,95
2022-10-02T08:26:37.192Z,95
2022-10-02T08:30:02.189Z,95
2022-10-02T08:33:27.577Z,95
2022-10-02T08:36:52.898Z,95
2022-10-02T08:40:18.249Z,95
2022-10-02T08:43:43.655Z,95
2022-10-02T08:47:09.061Z,95
2022-10-02T08:50:34.397Z,95
2022-10-02T08:53:59.795Z,95
2022-10-02T08:57:25.167Z,94
2022-10-02T09:00:50.542Z,94
2022-10-02T09:04:15.934Z,94
2022-10-02T09:07:41.304Z,94
2022-10-02T09:11:06.695Z,94
2022-10-02T09:14:32.123Z,94
2022-10-02T09:17:57.506Z,94
2022-10-02T09:21:22.867Z,94
2022-10-02T09:24:48.222Z,94
2022-10-02T09:28:13.645Z,94
2022-10-02T09:31:39.069Z,95
2022-10-02T09:35:04.380Z,95
2022-10-02T09:38:29.933Z,95
2022-10-02T09:41:55.151Z,95
2022-10-02T09:45:20.513Z,95
2022-10-02T09:48:45.906Z,96
2022-10-02T09:52:11.294Z,95
2022-10-02T09:55:36.682Z,95
2022-10-02T09:59:01.990Z,95
2022-10-02T10:02:27.541Z,94
2022-10-02T10:05:52.698Z,94
2022-10-02T10:09:18.082Z,94
2022-10-02T10:12:43.480Z,95
2022-10-02T10:16:08.895Z,95
2022-10-02T10:19:34.220Z,95
2022-10-02T10:22:59.615Z,95
2022-10-02T10:26:25.001Z,95
2022-10-02T10:29:50.415Z,95
2022-10-02T10:33:15.772Z,94
2022-10-02T10:36:44.559Z,92
2022-10-02T10:40:06.507Z,91
2022-10-02T10:43:31.851Z,91
2022-10-02T10:46:57.134Z,92
2022-10-02T10:50:22.495Z,92
2022-10-02T10:53:47.907Z,93
2022-10-02T10:57:13.289Z,93
2022-10-02T11:00:38.691Z,93
2022-10-02T11:04:04.076Z,94
2022-10-02T11:07:29.463Z,95
2022-10-02T11:10:55.664Z,95
2022-10-02T11:14:21.732Z,95
2022-10-02T11:17:47.132Z,95
2022-10-02T11:21:12.535Z,96
2022-10-02T11:24:37.880Z,96
2022-10-02T11:28:03.342Z,95
2022-10-02T11:31:28.821Z,96
2022-10-02T11:34:54.077Z,96
2022-10-02T11:38:19.573Z,95
2022-10-02T11:41:44.825Z,95
2022-10-02T11:45:10.214Z,96
2022-10-02T11:48:35.661Z,96
2022-10-02T11:52:01.070Z,95
2022-10-02T11:55:26.438Z,95
2022-10-02T11:58:51.788Z,94
2022-10-02T12:02:17.238Z,93
2022-10-02T12:05:42.519Z,93
2022-10-02T12:09:07.888Z,93
2022-10-02T12:12:33.291Z,93
2022-10-02T12:15:58.660Z,93
2022-10-02T12:19:24.054Z,93
2022-10-02T12:22:49.442Z,93
2022-10-02T12:26:15.736Z,93
2022-10-02T12:29:43.373Z,93
2022-10-02T12:33:24.749Z,93
2022-10-02T12:36:50.120Z,93
2022-10-02T12:40:15.490Z,93
2022-10-02T12:43:40.878Z,94
2022-10-02T12:47:06.225Z,93
2022-10-02T12:50:31.607Z,93
2022-10-02T12:53:57.003Z,93
2022-10-02T12:57:22.411Z,93
2022-10-02T13:00:47.903Z,93
2022-10-02T13:04:13.341Z,92
2022-10-02T13:07:38.771Z,92
2022-10-02T13:11:04.228Z,92
2022-10-02T13:14:29.678Z,92
2022-10-02T13:17:55.074Z,93
2022-10-02T13:21:20.489Z,93
2022-10-02T13:24:45.889Z,93
2022-10-02T13:28:11.447Z,93
2022-10-02T13:31:37.261Z,93
2022-10-02T13:35:02.301Z,93
2022-10-02T13:38:27.799Z,93
2022-10-02T13:41:53.239Z,93
2022-10-02T13:45:18.676Z,94
2022-10-02T13:48:44.118Z,94
2022-10-02T13:52:09.576Z,94
2022-10-02T13:55:35.028Z,93
2022-10-02T13:59:00.494Z,92
2022-10-02T14:02:25.958Z,92
2022-10-02T14:05:54.532Z,92
2022-10-02T14:09:16.933Z,92
2022-10-02T14:12:42.435Z,91
2022-10-02T14:16:07.828Z,91
2022-10-02T14:19:33.130Z,92
2022-10-02T14:22:58.487Z,91
2022-10-02T14:26:23.866Z,92
2022-10-02T14:29:49.291Z,91
2022-10-02T15:04:30.707Z,89
2022-10-02T15:07:55.782Z,88
2022-10-02T15:11:21.080Z,89
2022-10-02T15:14:46.363Z,90
2022-10-02T15:18:12.714Z,89
2022-10-02T15:21:39.387Z,89
2022-10-02T15:25:04.633Z,88
2022-10-02T15:28:36.641Z,88
2022-10-02T15:31:55.865Z,89
2022-10-02T15:35:22.148Z,88
2022-10-02T15:38:47.693Z,87
2022-10-02T15:42:12.971Z,88
2022-10-02T15:45:38.308Z,88
2022-10-02T15:49:03.518Z,89
2022-10-02T15:52:28.814Z,89
2022-10-02T15:55:54.195Z,89
2022-10-02T15:59:19.447Z,88
2022-10-02T16:02:44.804Z,89
2022-10-02T16:06:10.022Z,89
2022-10-02T16:09:35.310Z,89
2022-10-02T16:13:00.622Z,89
2022-10-02T16:16:25.905Z,89
2022-10-02T16:19:51.137Z,89
2022-10-02T16:23:16.423Z,89
2022-10-02T16:26:41.743Z,88
2022-10-02T16:30:07.017Z,89
2022-10-02T16:33:32.315Z,89
2022-10-02T16:36:57.664Z,89
2022-10-02T16:40:22.973Z,89
2022-10-02T16:43:48.292Z,88
2022-10-02T16:47:13.619Z,88
2022-10-02T16:50:42.227Z,88
2022-10-02T16:54:04.202Z,88
2022-10-02T16:57:29.586Z,88
2022-10-02T17:00:55.039Z,89
2022-10-02T17:04:20.449Z,89
2022-10-02T17:07:45.873Z,89
2022-10-02T17:11:11.381Z,89
2022-10-02T17:14:36.850Z,89
2022-10-02T17:18:02.264Z,89
2022-10-02T17:21:27.708Z,89
2022-10-02T17:24:53.161Z,88
2022-10-02T17:28:18.646Z,88
2022-10-02T17:31:44.037Z,88
2022-10-02T17:35:09.480Z,88
2022-10-02T17:38:35.854Z,88
2022-10-02T17:42:01.264Z,88
2022-10-02T17:45:26.806Z,87
2022-10-02T17:48:52.153Z,87
2022-10-02T17:52:17.544Z,87
2022-10-02T17:55:43.024Z,87
2022-10-02T17:59:08.411Z,86
2022-10-02T18:02:33.844Z,87
2022-10-02T18:05:59.235Z,87
2022-10-02T18:09:24.685Z,87
2022-10-02T18:12:50.166Z,87
2022-10-02T18:16:15.598Z,87
2022-10-02T18:19:41.034Z,87
2022-10-02T18:23:06.446Z,87
2022-10-02T18:26:31.996Z,87
2022-10-02T18:29:57.373Z,87
2022-10-02T18:33:22.782Z,87
2022-10-02T18:36:48.177Z,87
2022-10-02T18:40:13.683Z,87
2022-10-02T18:43:39.063Z,87
2022-10-02T18:47:04.477Z,86
2022-10-02T18:50:29.962Z,84
2022-10-02T18:53:55.371Z,84
2022-10-02T18:57:21.685Z,83
2022-10-02T19:00:47.123Z,85
2022-10-02T19:04:12.517Z,85
2022-10-02T19:07:37.908Z,85
2022-10-02T19:11:03.347Z,84
2022-10-02T19:14:28.879Z,84
2022-10-02T19:17:54.330Z,84
2022-10-02T19:21:19.721Z,84
2022-10-02T19:24:45.115Z,84
2022-10-02T19:28:10.529Z,85
2022-10-02T19:31:36.168Z,85
2022-10-02T19:35:01.337Z,85
2022-10-02T19:38:26.778Z,84
2022-10-02T19:41:52.147Z,84
2022-10-02T19:45:19.630Z,84
2022-10-02T19:48:42.961Z,84
2022-10-02T19:52:08.358Z,85
2022-10-02T19:55:33.796Z,85
2022-10-02T19:58:59.232Z,85
2022-10-02T20:02:24.770Z,86
2022-10-02T20:05:50.123Z,86
2022-10-02T20:09:15.537Z,86
2022-10-02T20:12:40.984Z,86
2022-10-02T20:16:06.433Z,86
2022-10-02T20:19:31.871Z,87
2022-10-02T20:22:57.333Z,87
2022-10-02T20:26:22.712Z,88
2022-10-02T20:29:48.229Z,87
2022-10-02T20:33:13.622Z,88
2022-10-02T20:36:39.150Z,88
2022-10-02T20:40:04.574Z,88
2022-10-02T20:43:30.025Z,87
2022-10-02T20:46:55.523Z,87
2022-10-02T20:50:20.937Z,88
2022-10-02T20:53:46.398Z,87
2022-10-02T20:57:14.663Z,87
2022-10-02T21:00:37.345Z,87
2022-10-02T21:04:05.868Z,86
2022-10-02T21:07:28.294Z,87
2022-10-02T21:10:53.757Z,87
2022-10-02T21:14:19.189Z,87
2022-10-02T21:17:44.597Z,87
2022-10-02T21:21:10.077Z,88
2022-10-02T21:24:35.535Z,88
2022-10-02T21:28:01.472Z,88
2022-10-02T21:31:26.882Z,88
2022-10-02T21:34:52.304Z,87
2022-10-02T21:38:17.748Z,88
2022-10-02T21:41:43.257Z,88
2022-10-02T21:45:08.680Z,88
2022-10-02T21:48:34.098Z,88
2022-10-02T21:51:59.519Z,88
2022-10-02T21:55:25.015Z,87
2022-10-02T21:58:50.442Z,88
2022-10-02T22:02:16.534Z,88
2022-10-02T22:05:41.418Z,88
2022-10-02T22:09:06.800Z,88
2022-10-02T22:12:32.297Z,88
2022-10-02T22:15:57.830Z,88
2022-10-02T22:19:23.337Z,89
2022-10-02T22:22:48.694Z,89
2022-10-02T22:26:14.215Z,89
2022-10-02T22:29:39.730Z,89
2022-10-02T22:33:05.195Z,89
2022-10-02T22:36:30.681Z,89
2022-10-02T22:39:56.129Z,89
2022-10-02T22:43:21.520Z,89
2022-10-02T22:46:47.098Z,89
2022-10-02T22:50:12.473Z,89
2022-10-02T22:53:37.962Z,88
2022-10-02T22:57:03.502Z,88
2022-10-02T23:00:28.958Z,88
2022-10-02T23:03:54.456Z,88
2022-10-02T23:07:19.893Z,88
2022-10-02T23:10:45.323Z,88
2022-10-02T23:14:10.805Z,88
2022-10-02T23:17:36.241Z,88
2022-10-02T23:21:01.698Z,88
2022-10-02T23:24:27.020Z,88
2022-10-02T23:27:52.446Z,88
2022-10-02T23:31:17.890Z,88
2022-10-02T23:34:43.332Z,87
2022-10-02T23:38:08.756Z,87
2022-10-02T23:41:34.199Z,87
2022-10-02T23:44:59.581Z,86
2022-10-02T23:48:24.964Z,86
2022-10-02T23:51:50.365Z,86
2022-10-02T23:55:15.778Z,86
2022-10-02T23:58:41.165Z,86
